TimeEET,TemperatureF,Dew PointF,Humidity,Sea Level PressureIn,VisibilityMPH,Wind Direction,Wind SpeedMPH,Gust SpeedMPH,PrecipitationIn,Events,Conditions,WindDirDegrees,DateUTC
12:00 AM,78.8,48.2,34,29.95,-9999.0,North,5.8,-,N/A,,Clear,350,2012-10-07 22:00:00
2:00 AM,76,47,26,29.92,6,North,6.9,,,,,0,2012-10-08 00:00:00
2:00 AM,75.2,48.2,38,29.92,-9999.0,North,6.9,-,N/A,,Clear,360,2012-10-08 00:00:00
3:00 AM,75.2,46.4,36,29.92,-9999.0,North,5.8,-,N/A,,Clear,350,2012-10-08 01:00:00
4:00 AM,73.4,46.4,38,29.95,-9999.0,North,6.9,-,N/A,,Clear,350,2012-10-08 02:00:00
5:00 AM,71.6,50.0,46,29.95,-9999.0,North,8.1,-,N/A,,Clear,360,2012-10-08 03:00:00
6:00 AM,71.6,50.0,46,29.95,-9999.0,North,6.9,-,N/A,,Clear,360,2012-10-08 04:00:00
7:00 AM,73.4,50.0,44,29.95,-9999.0,North,6.9,-,N/A,,Clear,10,2012-10-08 05:00:00
8:00 AM,78,49,26,29.95,6,North,8.1,,,,,0,2012-10-08 06:00:00
8:00 AM,78.8,50.0,36,29.98,-9999.0,North,8.1,-,N/A,,Clear,360,2012-10-08 06:00:00
9:00 AM,82.4,51.8,35,29.98,-9999.0,North,9.2,-,N/A,,Clear,360,2012-10-08 07:00:00
10:00 AM,86.0,51.8,31,29.95,-9999.0,North,11.5,-,N/A,,Clear,360,2012-10-08 08:00:00
11:00 AM,87.8,50.0,27,29.95,-9999.0,North,11.5,-,N/A,,Clear,360,2012-10-08 09:00:00
12:00 PM,89.6,50.0,26,29.92,-9999.0,North,11.5,-,N/A,,Clear,10,2012-10-08 10:00:00
1:00 PM,91.4,48.2,23,29.89,-9999.0,North,9.2,-,N/A,,Clear,360,2012-10-08 11:00:00
2:00 PM,93,50,14,29.84,6,North,11.5,,,,,0,2012-10-08 12:00:00
2:00 PM,93.2,50.0,23,29.86,-9999.0,North,11.5,-,N/A,,Clear,360,2012-10-08 12:00:00
3:00 PM,95.0,46.4,19,29.86,-9999.0,North,9.2,-,N/A,,Clear,360,2012-10-08 13:00:00
4:00 PM,93.2,44.6,19,29.86,-9999.0,North,11.5,-,N/A,,Clear,360,2012-10-08 14:00:00
5:00 PM,91.4,42.8,18,29.86,-9999.0,North,11.5,-,N/A,,Clear,360,2012-10-08 15:00:00
7:00 PM,86.0,44.6,23,29.89,-9999.0,North,9.2,-,N/A,,Clear,350,2012-10-08 17:00:00
8:00 PM,84,47,17,29.89,6,North,8.1,,,,,350,2012-10-08 18:00:00
8:00 PM,84.2,46.4,27,29.92,-9999.0,North,8.1,-,N/A,,Clear,350,2012-10-08 18:00:00
9:00 PM,82.4,48.2,30,29.92,-9999.0,North,6.9,-,N/A,,Clear,350,2012-10-08 19:00:00
10:00 PM,80.6,48.2,32,29.92,-9999.0,North,9.2,-,N/A,,Clear,360,2012-10-08 20:00:00
11:00 PM,77.0,46.4,34,29.92,-9999.0,North,5.8,-,N/A,,Clear,360,2012-10-08 21:00:00